Airfield :
LOGIN :

Register | Disclaimer

   EN    FR    IT 

 










Legend :    VFR   Marginal VFR   IFR   Intensive IFR   Very Intensive IFR
Visi :
Ceiling :
>= 8 km
>= 3000ft
5 to 8 km
1000 to 3000 ft
1500m to 5 km
500 to 1000 ft
800 to 1500m
200 to 500 ft
< 800m
< 200 ft
Symbols :   Thunderstorms  Fog  Heavy snow  Heavy precipitations  Wind > 20 kt
SIGMETs :     Misc.  Thunderstorms  Icing  Turbulence  Mountain Waves  Volcanic Ashes






- Airport Elevation : 1516 ft
- IATA code : AGB


EDMA - Augsburg

CURRENT METAR :
  • 160620Z 27007KT 9999 -SN OVC044 M03/M05 Q1025

EXPIRED METARs :
  • 160550Z 28006KT 9999 -SN OVC042 M03/M04 Q1025
  • 160520Z AUTO 29005KT 9999 // OVC039/// M03/M04 Q1025
  • 160450Z AUTO 28006KT 9999 // OVC045/// M03/M04 Q1025
  • 160420Z AUTO 28005KT 9999 // OVC047/// M03/M04 Q1025
  • 160350Z AUTO 28005KT 9999 // OVC047/// M03/M04 Q1025
  • 160320Z AUTO 28005KT 9999 // FEW035/// OVC048/// M03/M04 Q1025

Expired Forecast.



MET'MAP, your aeronautical weather chart ! - Copyright ORBIFLY December 2007 - Disclaimer

ORBIFLY MET'MAP TEAM :

Programming & Development : Alexandra Zaïnal
Concept & original design : Baudouin d'Aumeries
Assistance for programming : Marc-Olivier Méhu
Technical & hardware support : Manuel Goepfert

Contact : metmap@orbifly.com




SOURCES & CREDITS :

   NOAA